createdAt,value
2022-08-19T00:01:04.235Z,29.19
2022-08-19T00:03:52.822Z,29.14
2022-08-19T00:06:44.805Z,29.15
2022-08-19T00:09:33.873Z,29.06
2022-08-19T00:12:22.543Z,29.02
2022-08-19T00:15:14.929Z,29.00
2022-08-19T00:18:03.459Z,28.91
2022-08-19T00:20:52.215Z,28.94
2022-08-19T00:23:42.640Z,28.90
2022-08-19T00:26:31.103Z,28.89
2022-08-19T00:29:22.234Z,28.91
2022-08-19T00:32:10.983Z,28.93
2022-08-19T00:35:02.520Z,29.03
2022-08-19T00:37:51.871Z,29.07
2022-08-19T00:40:42.132Z,28.97
2022-08-19T00:43:31.024Z,28.91
2022-08-19T00:46:19.598Z,28.86
2022-08-19T00:49:12.360Z,28.84
2022-08-19T00:52:05.659Z,28.77
2022-08-19T00:54:54.948Z,28.76
2022-08-19T00:57:48.955Z,28.74
2022-08-19T01:00:38.434Z,28.71
2022-08-19T01:03:27.073Z,28.70
2022-08-19T01:06:15.699Z,28.66
2022-08-19T01:09:08.637Z,28.69
2022-08-19T01:11:57.387Z,28.69
2022-08-19T01:14:47.580Z,28.65
2022-08-19T01:17:36.467Z,28.64
2022-08-19T01:20:25.938Z,28.62
2022-08-19T01:23:16.161Z,28.60
2022-08-19T01:26:04.707Z,28.58
2022-08-19T01:28:57.372Z,28.64
2022-08-19T01:31:48.220Z,28.62
2022-08-19T01:34:36.931Z,28.53
2022-08-19T01:37:27.189Z,28.51
2022-08-19T01:40:17.684Z,28.48
2022-08-19T01:43:06.917Z,28.55
2022-08-19T01:45:55.443Z,28.54
2022-08-19T01:48:45.787Z,28.53
2022-08-19T01:51:39.649Z,28.47
2022-08-19T01:54:28.929Z,28.46
2022-08-19T01:57:18.775Z,28.51
2022-08-19T02:00:09.469Z,28.58
2022-08-19T02:02:58.339Z,28.63
2022-08-19T02:05:51.196Z,28.60
2022-08-19T02:08:42.015Z,28.58
2022-08-19T02:11:36.623Z,28.54
2022-08-19T02:14:26.448Z,28.53
2022-08-19T02:17:15.018Z,28.55
2022-08-19T02:20:03.616Z,28.51
2022-08-19T02:22:52.609Z,28.53
2022-08-19T02:25:41.529Z,28.58
2022-08-19T02:28:30.212Z,28.68
2022-08-19T02:31:23.529Z,28.82
2022-08-19T02:34:14.209Z,28.88
2022-08-19T02:37:03.842Z,28.93
2022-08-19T02:39:51.727Z,28.95
2022-08-19T02:42:40.474Z,29.04
2022-08-19T02:45:29.070Z,29.09
2022-08-19T02:48:21.541Z,29.06
2022-08-19T02:51:10.517Z,28.98
2022-08-19T02:53:59.834Z,28.84
2022-08-19T02:56:48.409Z,28.82
2022-08-19T02:59:36.934Z,28.86
2022-08-19T03:02:25.495Z,28.96
2022-08-19T03:05:15.375Z,29.02
2022-08-19T03:08:04.522Z,29.04
2022-08-19T03:10:54.020Z,29.00
2022-08-19T03:13:44.144Z,29.05
2022-08-19T03:16:34.877Z,28.98
2022-08-19T03:19:23.632Z,28.90
2022-08-19T03:22:13.645Z,28.92
2022-08-19T03:25:02.211Z,28.93
2022-08-19T03:27:50.623Z,28.91
2022-08-19T03:30:40.508Z,28.82
2022-08-19T03:33:33.271Z,28.72
2022-08-19T03:36:25.433Z,28.72
2022-08-19T03:39:17.228Z,28.72
2022-08-19T03:42:38.841Z,28.70
2022-08-19T03:45:14.897Z,28.64
2022-08-19T03:48:03.430Z,28.63
2022-08-19T03:50:52.070Z,28.63
2022-08-19T03:53:40.609Z,28.55
2022-08-19T03:56:30.636Z,28.59
2022-08-19T03:59:22.136Z,28.77
2022-08-19T04:02:13.086Z,28.78
2022-08-19T04:05:01.652Z,28.87
2022-08-19T04:07:50.238Z,28.84
2022-08-19T04:10:39.217Z,28.87
2022-08-19T04:13:29.073Z,28.93
2022-08-19T04:16:17.657Z,28.91
2022-08-19T04:19:07.604Z,28.80
2022-08-19T04:21:56.938Z,28.75
2022-08-19T04:24:45.461Z,28.68
2022-08-19T04:27:34.376Z,28.77
2022-08-19T04:30:24.452Z,28.81
2022-08-19T04:33:14.131Z,28.81
2022-08-19T04:36:02.572Z,28.85
2022-08-19T04:38:51.431Z,28.91
2022-08-19T04:41:54.149Z,28.99
2022-08-19T04:44:46.385Z,29.01
2022-08-19T04:47:47.877Z,29.03
2022-08-19T04:50:46.013Z,28.97
2022-08-19T04:53:37.794Z,28.96
2022-08-19T04:56:27.589Z,28.88
2022-08-19T04:59:16.969Z,28.88
2022-08-19T05:02:06.992Z,28.98
2022-08-19T05:05:01.938Z,29.06
2022-08-19T05:07:50.495Z,29.21
2022-08-19T05:10:39.624Z,29.22
2022-08-19T05:13:29.009Z,29.27
2022-08-19T05:16:19.674Z,29.30
2022-08-19T05:19:37.483Z,29.32
2022-08-19T05:22:39.607Z,29.34
2022-08-19T05:25:28.082Z,29.38
2022-08-19T05:28:16.551Z,29.43
2022-08-19T05:31:05.054Z,29.44
2022-08-19T05:33:53.535Z,29.47
2022-08-19T05:36:46.069Z,29.47
2022-08-19T05:39:38.255Z,29.49
2022-08-19T05:42:27.489Z,29.53
2022-08-19T05:45:16.132Z,29.55
2022-08-19T05:48:05.001Z,29.58
2022-08-19T05:50:53.466Z,29.62
2022-08-19T05:53:41.955Z,29.62
2022-08-19T05:56:32.420Z,29.63
2022-08-19T05:59:22.439Z,29.66
2022-08-19T06:02:14.530Z,29.68
2022-08-19T06:05:03.658Z,29.71
2022-08-19T06:07:52.183Z,29.71
2022-08-19T06:10:40.834Z,29.70
2022-08-19T06:13:33.292Z,29.69
2022-08-19T06:16:24.276Z,29.71
2022-08-19T06:19:15.520Z,29.74
2022-08-19T06:22:04.283Z,29.74
2022-08-19T06:24:53.599Z,29.75
2022-08-19T06:28:11.552Z,29.76
2022-08-19T06:30:52.550Z,29.80
2022-08-19T06:33:41.073Z,29.80
2022-08-19T06:36:32.726Z,29.80
2022-08-19T06:39:23.269Z,29.82
2022-08-19T06:42:17.133Z,29.83
2022-08-19T06:45:09.631Z,29.84
2022-08-19T06:48:00.090Z,29.85
2022-08-19T06:50:52.465Z,29.85
2022-08-19T06:53:41.478Z,29.87
2022-08-19T06:56:34.601Z,29.86
2022-08-19T06:59:28.178Z,29.86
2022-08-19T07:05:11.994Z,29.88
2022-08-19T07:08:04.968Z,29.89
2022-08-19T07:10:53.734Z,29.89
2022-08-19T07:13:44.336Z,29.90
2022-08-19T07:16:33.044Z,29.92
2022-08-19T07:19:22.050Z,29.91
2022-08-19T07:22:13.112Z,29.93
2022-08-19T07:25:03.770Z,29.93
2022-08-19T07:27:54.414Z,29.96
2022-08-19T07:30:43.220Z,29.96
2022-08-19T07:33:33.552Z,29.96
2022-08-19T07:36:25.335Z,29.97
2022-08-19T07:39:19.393Z,29.98
2022-08-19T07:42:10.857Z,29.98
2022-08-19T07:45:02.135Z,29.99
2022-08-19T07:47:51.334Z,30.00
2022-08-19T07:50:39.958Z,30.01
2022-08-19T07:53:28.570Z,30.05
2022-08-19T07:56:19.486Z,30.02
2022-08-19T07:59:08.789Z,30.05
2022-08-19T08:02:00.622Z,30.02
2022-08-19T08:05:06.792Z,30.03
2022-08-19T08:08:13.221Z,30.08
2022-08-19T08:11:01.700Z,30.07
2022-08-19T08:14:01.084Z,30.08
2022-08-19T08:16:53.679Z,30.06
2022-08-19T08:19:43.116Z,30.07
2022-08-19T08:22:49.760Z,30.08
2022-08-19T08:25:38.889Z,30.09
2022-08-19T08:28:29.571Z,30.09
2022-08-19T08:31:20.566Z,30.10
2022-08-19T08:34:09.805Z,30.11
2022-08-19T08:36:58.285Z,30.11
2022-08-19T08:39:46.856Z,30.11
2022-08-19T08:42:38.808Z,30.11
2022-08-19T08:45:27.329Z,30.13
2022-08-19T08:48:26.931Z,30.15
2022-08-19T08:51:20.404Z,30.15
2022-08-19T08:54:13.633Z,30.14
2022-08-19T08:57:02.204Z,30.16
2022-08-19T08:59:52.716Z,30.17
2022-08-19T09:02:43.537Z,30.17
2022-08-19T09:05:56.930Z,30.17
2022-08-19T09:08:52.272Z,30.20
2022-08-19T09:11:52.207Z,30.20
2022-08-19T09:14:50.852Z,30.21
2022-08-19T09:17:40.577Z,30.23
2022-08-19T09:20:29.077Z,30.22
2022-08-19T09:23:18.972Z,30.23
2022-08-19T09:26:17.272Z,30.24
2022-08-19T09:29:09.919Z,30.23
2022-08-19T09:31:58.499Z,30.25
2022-08-19T09:34:50.836Z,30.28
2022-08-19T09:37:40.347Z,30.27
2022-08-19T09:40:32.642Z,30.27
2022-08-19T09:43:32.913Z,30.30
2022-08-19T09:46:22.929Z,30.30
2022-08-19T09:49:12.443Z,30.29
2022-08-19T09:52:02.381Z,30.30
2022-08-19T09:54:55.045Z,30.30
2022-08-19T09:57:44.852Z,30.31
2022-08-19T10:00:33.311Z,30.30
2022-08-19T10:03:21.794Z,30.31
2022-08-19T10:06:15.120Z,30.30
2022-08-19T10:09:09.039Z,30.29
2022-08-19T10:11:57.714Z,30.30
2022-08-19T10:14:48.114Z,30.30
2022-08-19T10:17:37.088Z,30.31
2022-08-19T10:20:26.013Z,30.32
2022-08-19T10:23:14.907Z,30.35
2022-08-19T10:26:07.107Z,30.36
2022-08-19T10:28:56.043Z,30.35
2022-08-19T10:32:01.253Z,30.34
2022-08-19T10:34:52.858Z,30.39
2022-08-19T10:37:57.040Z,30.38
2022-08-19T10:40:46.169Z,30.39
2022-08-19T10:43:35.520Z,30.41
2022-08-19T10:46:25.357Z,30.43
2022-08-19T10:49:16.161Z,30.44
2022-08-19T10:52:32.577Z,30.44
2022-08-19T10:55:41.225Z,30.47
2022-08-19T10:58:29.686Z,30.51
2022-08-19T11:01:18.254Z,30.48
2022-08-19T11:04:09.943Z,30.50
2022-08-19T11:06:59.977Z,30.50
2022-08-19T11:09:48.561Z,30.53
2022-08-19T11:12:40.142Z,30.51
2022-08-19T11:15:29.699Z,30.51
2022-08-19T11:18:18.506Z,30.52
2022-08-19T11:21:15.340Z,30.52
2022-08-19T11:24:07.550Z,30.52
2022-08-19T11:26:59.903Z,30.52
2022-08-19T11:29:48.391Z,30.53
2022-08-19T11:32:36.871Z,30.50
2022-08-19T11:35:25.891Z,30.52
2022-08-19T11:38:15.596Z,30.54
2022-08-19T11:41:08.211Z,30.57
2022-08-19T11:43:57.491Z,30.54
2022-08-19T11:46:47.456Z,30.54
2022-08-19T11:49:37.256Z,30.54
2022-08-19T11:52:26.410Z,30.56
2022-08-19T11:55:15.412Z,30.56
2022-08-19T11:58:07.341Z,30.56
2022-08-19T12:01:08.880Z,30.56
2022-08-19T12:03:59.061Z,30.55
2022-08-19T12:06:47.591Z,30.54
2022-08-19T12:09:36.319Z,30.53
2022-08-19T12:12:30.651Z,30.52
2022-08-19T12:15:20.401Z,30.54
2022-08-19T12:18:09.484Z,30.56
2022-08-19T12:20:57.988Z,30.54
2022-08-19T12:23:47.377Z,30.54
2022-08-19T12:26:52.381Z,30.56
2022-08-19T12:29:42.495Z,30.54
2022-08-19T12:32:32.461Z,30.55
2022-08-19T12:35:22.156Z,30.54
2022-08-19T12:38:10.831Z,30.56
2022-08-19T12:41:00.405Z,30.55
2022-08-19T12:43:50.127Z,30.55
2022-08-19T12:46:38.597Z,30.56
2022-08-19T12:49:52.814Z,30.53
2022-08-19T12:52:43.470Z,30.54
2022-08-19T12:55:32.781Z,30.53
2022-08-19T12:58:24.256Z,30.53
2022-08-19T13:01:18.242Z,30.54
2022-08-19T13:04:11.379Z,30.55
2022-08-19T13:07:01.301Z,30.55
2022-08-19T13:09:49.945Z,30.58
2022-08-19T13:12:38.441Z,30.56
2022-08-19T13:15:29.411Z,30.56
2022-08-19T13:18:17.864Z,30.58
2022-08-19T13:21:07.124Z,30.57
2022-08-19T13:23:57.283Z,30.58
2022-08-19T13:26:45.840Z,30.56
2022-08-19T13:29:52.052Z,30.54
2022-08-19T13:32:57.951Z,30.56
2022-08-19T13:35:49.229Z,30.47
2022-08-19T13:38:38.828Z,30.34
2022-08-19T13:41:29.114Z,30.13
2022-08-19T13:44:19.160Z,30.01
2022-08-19T13:47:09.195Z,30.03
2022-08-19T13:49:57.713Z,29.93
2022-08-19T13:52:46.523Z,29.84
2022-08-19T13:55:35.355Z,29.79
2022-08-19T13:58:25.174Z,29.79
2022-08-19T14:01:13.671Z,29.80
2022-08-19T14:04:02.254Z,29.79
2022-08-19T14:06:50.726Z,29.83
2022-08-19T14:09:39.230Z,29.76
2022-08-19T14:12:28.226Z,29.72
2022-08-19T14:15:19.071Z,29.64
2022-08-19T14:18:07.737Z,29.60
2022-08-19T14:20:57.200Z,29.53
2022-08-19T14:23:47.514Z,29.49
2022-08-19T14:26:36.026Z,29.41
2022-08-19T14:29:24.828Z,29.43
2022-08-19T14:32:16.744Z,29.37
2022-08-19T14:35:06.421Z,29.38
2022-08-19T14:37:56.728Z,29.34
2022-08-19T14:40:45.611Z,29.29
2022-08-19T14:43:34.280Z,29.30
2022-08-19T14:46:25.163Z,29.20
2022-08-19T14:49:15.002Z,29.26
2022-08-19T14:52:04.559Z,29.23
2022-08-19T14:54:53.152Z,29.27
2022-08-19T14:57:43.369Z,29.36
2022-08-19T15:00:31.849Z,29.47
2022-08-19T15:03:20.358Z,29.54
2022-08-19T15:06:12.838Z,29.63
2022-08-19T15:09:04.527Z,29.69
2022-08-19T15:11:53.123Z,29.77
2022-08-19T15:14:43.338Z,29.81
2022-08-19T15:17:45.194Z,29.84
2022-08-19T15:20:34.565Z,29.86
2022-08-19T15:23:24.616Z,29.91
2022-08-19T15:26:16.135Z,29.93
2022-08-19T15:29:05.254Z,29.95
2022-08-19T15:31:56.134Z,30.00
2022-08-19T15:34:46.597Z,29.99
2022-08-19T15:37:37.610Z,30.03
2022-08-19T15:40:28.844Z,30.06
2022-08-19T15:43:18.236Z,30.05
2022-08-19T15:46:07.117Z,30.05
2022-08-19T15:48:59.905Z,30.07
2022-08-19T15:51:51.924Z,30.09
2022-08-19T15:54:40.987Z,30.09
2022-08-19T15:57:50.457Z,30.10
2022-08-19T16:00:57.086Z,30.12
2022-08-19T16:04:03.216Z,30.16
2022-08-19T16:06:54.596Z,30.14
2022-08-19T16:09:43.164Z,30.18
2022-08-19T16:12:33.101Z,30.18
2022-08-19T16:15:21.976Z,30.17
2022-08-19T16:18:10.570Z,30.21
2022-08-19T16:20:59.085Z,30.10
2022-08-19T16:23:48.030Z,30.06
2022-08-19T16:26:36.665Z,30.02
2022-08-19T16:29:33.733Z,29.94
2022-08-19T16:32:23.784Z,29.87
2022-08-19T16:35:12.611Z,29.71
2022-08-19T16:38:01.297Z,29.70
2022-08-19T16:40:54.293Z,29.55
2022-08-19T16:43:43.435Z,29.48
2022-08-19T16:46:37.226Z,29.50
2022-08-19T16:49:53.709Z,29.43
2022-08-19T16:52:36.443Z,29.36
2022-08-19T16:55:25.305Z,29.24
2022-08-19T16:58:13.851Z,29.21
2022-08-19T17:01:04.387Z,29.18
2022-08-19T17:03:54.956Z,29.23
2022-08-19T17:06:44.929Z,29.21
2022-08-19T17:09:33.461Z,29.27
2022-08-19T17:12:23.087Z,29.33
2022-08-19T17:15:19.237Z,29.31
2022-08-19T17:18:09.698Z,29.31
2022-08-19T17:21:00.057Z,29.36
2022-08-19T17:23:48.722Z,29.35
2022-08-19T17:26:38.023Z,29.37
2022-08-19T17:29:26.534Z,29.42
2022-08-19T17:32:15.359Z,29.42
2022-08-19T17:35:04.770Z,29.45
2022-08-19T17:37:55.049Z,29.42
2022-08-19T17:40:43.971Z,29.36
2022-08-19T17:43:35.433Z,29.31
2022-08-19T17:46:26.622Z,29.29
2022-08-19T17:49:15.667Z,29.35
2022-08-19T17:52:10.082Z,29.39
2022-08-19T17:55:00.128Z,29.32
2022-08-19T17:57:48.652Z,29.23
2022-08-19T18:00:37.147Z,29.20
2022-08-19T18:03:43.144Z,29.23
2022-08-19T18:06:31.754Z,29.25
2022-08-19T18:09:20.971Z,29.30
2022-08-19T18:12:16.993Z,29.31
2022-08-19T18:15:07.128Z,29.32
2022-08-19T18:17:56.354Z,29.34
2022-08-19T18:20:45.819Z,29.26
2022-08-19T18:23:44.097Z,29.28
2022-08-19T18:26:34.914Z,29.20
2022-08-19T18:29:24.956Z,29.25
2022-08-19T18:32:13.840Z,29.23
2022-08-19T18:35:03.114Z,29.30
2022-08-19T18:37:51.709Z,29.35
2022-08-19T18:40:57.978Z,29.27
2022-08-19T18:44:04.175Z,29.18
2022-08-19T18:47:12.032Z,29.11
2022-08-19T18:50:07.724Z,29.02
2022-08-19T18:52:56.252Z,29.00
2022-08-19T18:55:49.481Z,29.06
2022-08-19T18:58:39.610Z,29.10
2022-08-19T19:01:30.835Z,29.04
2022-08-19T19:04:24.233Z,29.11
2022-08-19T19:07:14.201Z,29.17
2022-08-19T19:10:02.852Z,29.02
2022-08-19T19:12:51.455Z,28.95
2022-08-19T19:15:43.428Z,28.89
2022-08-19T19:18:34.354Z,28.94
2022-08-19T19:21:26.447Z,29.02
2022-08-19T19:24:16.741Z,28.98
2022-08-19T19:27:08.372Z,28.91
2022-08-19T19:29:57.436Z,28.92
2022-08-19T19:32:45.970Z,29.01
2022-08-19T19:35:34.552Z,28.96
2022-08-19T19:38:24.583Z,28.81
2022-08-19T19:41:14.226Z,28.84
2022-08-19T19:44:30.028Z,28.83
2022-08-19T19:47:13.104Z,28.83
2022-08-19T19:50:17.824Z,28.83
2022-08-19T19:53:06.415Z,28.88
2022-08-19T19:55:58.847Z,28.89
2022-08-19T19:58:50.402Z,28.97
2022-08-19T20:01:39.534Z,28.99
2022-08-19T20:04:32.868Z,29.05
2022-08-19T20:07:42.640Z,29.02
2022-08-19T20:10:31.867Z,28.92
2022-08-19T20:13:22.188Z,28.81
2022-08-19T20:16:10.836Z,28.79
2022-08-19T20:19:00.595Z,28.86
2022-08-19T20:21:51.496Z,28.74
2022-08-19T20:24:42.384Z,28.81
2022-08-19T20:27:37.157Z,28.87
2022-08-19T20:30:32.113Z,28.95
2022-08-19T20:33:21.782Z,29.00
2022-08-19T20:36:10.455Z,29.04
2022-08-19T20:38:59.590Z,29.05
2022-08-19T20:41:48.824Z,29.03
2022-08-19T20:44:37.985Z,29.02
2022-08-19T20:47:29.596Z,29.03
2022-08-19T20:50:18.778Z,29.02
2022-08-19T20:53:16.241Z,29.09
2022-08-19T20:56:05.196Z,29.15
2022-08-19T20:58:57.949Z,29.15
2022-08-19T21:01:48.869Z,29.16
2022-08-19T21:04:38.933Z,29.11
2022-08-19T21:07:39.155Z,29.10
2022-08-19T21:10:28.194Z,28.95
2022-08-19T21:13:17.668Z,28.88
2022-08-19T21:16:09.502Z,28.81
2022-08-19T21:18:58.026Z,28.86
2022-08-19T21:21:47.909Z,28.94
2022-08-19T21:24:36.646Z,28.99
2022-08-19T21:27:25.132Z,28.97
2022-08-19T21:30:14.757Z,28.88
2022-08-19T21:33:04.454Z,28.82
2022-08-19T21:35:53.533Z,28.87
2022-08-19T21:38:44.032Z,28.93
2022-08-19T21:41:32.588Z,28.90
2022-08-19T21:44:21.013Z,28.86
2022-08-19T21:47:09.542Z,28.93
2022-08-19T21:49:59.066Z,28.91
2022-08-19T21:52:47.841Z,28.99
2022-08-19T21:55:37.619Z,29.02
2022-08-19T21:58:28.338Z,29.03
2022-08-19T22:01:19.208Z,29.03
2022-08-19T22:04:07.699Z,28.89
2022-08-19T22:06:56.191Z,28.73
2022-08-19T22:09:46.464Z,28.73
2022-08-19T22:12:39.265Z,28.79
2022-08-19T22:15:41.053Z,28.81
2022-08-19T22:18:29.527Z,28.85
2022-08-19T22:21:22.621Z,28.90
2022-08-19T22:24:28.547Z,28.93
2022-08-19T22:27:17.007Z,28.97
2022-08-19T22:30:10.142Z,28.95
2022-08-19T22:33:00.824Z,29.03
2022-08-19T22:35:49.611Z,29.09
2022-08-19T22:38:38.432Z,28.98
2022-08-19T22:41:27.581Z,28.98
2022-08-19T22:44:16.051Z,29.01
2022-08-19T22:47:06.373Z,29.05
2022-08-19T22:49:54.995Z,29.10
2022-08-19T22:52:51.740Z,29.05
2022-08-19T22:55:40.992Z,29.04
2022-08-19T22:58:29.789Z,29.00
2022-08-19T23:01:27.368Z,28.92
2022-08-19T23:04:19.985Z,28.92
2022-08-19T23:07:09.335Z,28.83
2022-08-19T23:09:58.003Z,28.66
2022-08-19T23:12:49.332Z,28.49
2022-08-19T23:15:38.348Z,28.42
2022-08-19T23:18:26.968Z,28.53
2022-08-19T23:21:16.828Z,28.45
2022-08-19T23:24:06.562Z,28.46
2022-08-19T23:27:13.059Z,28.44
2022-08-19T23:30:18.943Z,28.37
2022-08-19T23:33:14.756Z,28.42
2022-08-19T23:36:07.562Z,28.37
2022-08-19T23:38:57.900Z,28.41
2022-08-19T23:41:46.430Z,28.50
2022-08-19T23:44:34.966Z,28.50
2022-08-19T23:47:41.359Z,28.51
2022-08-19T23:50:29.877Z,28.48
2022-08-19T23:53:18.425Z,28.51
2022-08-19T23:56:09.457Z,28.56
2022-08-19T23:58:59.279Z,28.60
